Aviation Digital Data Service (ADDS)

Output produced by METARs form (1107 UTC 19 January 2019)
found at http://www.aviationweather.gov/metar/data/
 
VGEG 191100Z 30006KT 3100 HZ NSC 23/16 Q1013 NOSIG
TAF VGEG 191100Z 1912/2018 35005KT 3500 HZ 
     BECMG 1924/2002 00000KT 1000 FG SCT015 
     BECMG 2002/2004 35005KT 3000 HZ NSC 
     BECMG 2012/2014 36004KT 2500 HZ FEW018